Saturday, July 21, 2018, 3:29 PM EDT
Back to Local

KLGA, New York La Guardia Airport

Location: Astoria, NY, United States Lat: 40.783
Local Time: 3:29 PM EDT (19:29 GMT) Lon: -73.883
Time Zone: US/Eastern Elev: 22 ft

Show me the last for .
Show Decoded

2018-07-21 14:51 METAR KLGA 211851Z 05016KT 10SM FEW043 SCT150 BKN260 24/17 A3003 RMK AO2 SLP170
                 T02390167 =
2018-07-21 13:51 METAR KLGA 211751Z 05018KT 10SM FEW046 SCT150 BKN260 24/15 A3005 RMK AO2 SLP174
                 T02440150 10261 20228 58013 =
2018-07-21 12:51 METAR KLGA 211651Z 05013KT 10SM SCT047 BKN150 BKN260 24/15 A3007 RMK AO2 SLP181
                 T02390150 =
2018-07-21 11:51 METAR KLGA 211551Z 10013KT 10SM SCT044 BKN200 BKN260 25/13 A3007 RMK AO2 SLP184
                 T02500133 =
2018-07-21 10:51 METAR KLGA 211451Z 12015KT 10SM FEW035 SCT150 BKN250 25/12 A3008 RMK AO2 SLP187
                 T02500122 50001 =
2018-07-21 09:51 METAR KLGA 211351Z 08011KT 10SM FEW035 SCT150 BKN250 24/11 A3009 RMK AO2 SLP188
                 T02390111 =
2018-07-21 08:51 METAR KLGA 211251Z 09012KT 10SM FEW032 SCT150 BKN240 23/14 A3009 RMK AO2 SLP187
                 T02330139 =
2018-07-21 07:51 METAR KLGA 211151Z 09011KT 10SM FEW035 SCT150 BKN230 BKN280 22/14 A3008 RMK AO2
                 SLP186 T02220144 10228 20206 56001 =
2018-07-21 06:51 METAR KLGA 211051Z 09008KT 10SM FEW034 SCT150 BKN240 BKN280 22/15 A3008 RMK AO2
                 SLP186 T02170150 =
2018-07-21 05:51 METAR KLGA 210951Z 07005KT 10SM FEW033 BKN150 BKN250 21/16 A3008 RMK AO2 SLP186
                 T02060156 =
2018-07-21 04:51 METAR KLGA 210851Z 08005KT 10SM FEW033 SCT150 SCT250 21/16 A3009 RMK AO2 SLP187
                 T02110156 56003 =
2018-07-21 03:51 METAR KLGA 210751Z 12005KT 10SM FEW031 SCT150 SCT250 22/14 A3009 RMK AO2 SLP188
                 T02220144 =
2018-07-21 02:51 METAR KLGA 210651Z 17005KT 10SM FEW032 BKN160 BKN250 23/14 A3009 RMK AO2 SLP189
                 T02280144 =
2018-07-21 01:51 METAR KLGA 210551Z 15008KT 10SM FEW033 BKN150 BKN250 23/14 A3009 RMK AO2 SLP190
                 T02280139 10250 20228 58010 =
2018-07-21 00:51 METAR KLGA 210451Z 18007KT 10SM FEW035 BKN150 BKN250 23/14 A3011 RMK AO2 SLP195
                 T02280139 402890211 =
2018-07-20 23:51 METAR KLGA 210351Z 17008KT 10SM FEW040 BKN150 BKN250 23/14 A3011 RMK AO2 SLP196
                 T02330139 =
2018-07-20 22:51 METAR KLGA 210251Z 17009KT 10SM SCT150 BKN250 23/13 A3012 RMK AO2 SLP200
                 T02330133 53002 =
2018-07-20 21:51 METAR KLGA 210151Z 16008KT 10SM FEW150 BKN250 24/14 A3012 RMK AO2 SLP200
                 T02390139 =
2018-07-20 20:51 METAR KLGA 210051Z 14009KT 10SM FEW160 SCT250 24/14 A3012 RMK AO2 SLP198
                 T02440144 =
2018-07-20 19:51 METAR KLGA 202351Z 17010KT 10SM FEW060 SCT180 SCT250 24/14 A3012 RMK AO2 SLP198
                 T02440139 10289 20244 55001 =
2018-07-20 18:51 METAR KLGA 202251Z 17012G16KT 10SM FEW060 SCT250 26/13 A3011 RMK AO2 SLP197
                 T02610128 =
2018-07-20 17:51 METAR KLGA 202151Z 15011G19KT 10SM FEW070 SCT250 27/11 A3011 RMK AO2 SLP197
                 T02720111 =
2018-07-20 16:51 METAR KLGA 202051Z 14009KT 100V170 10SM FEW060 SCT250 28/10 A3012 RMK AO2 SLP199
                 T02780100 58009 $ =
2018-07-20 15:51 METAR KLGA 201951Z 14007G16KT 110V170 10SM FEW060 SCT250 28/11 A3013 RMK AO2
                 SLP202 T02780106 $ =

Support USWX by starting your Amazon purchase here.